sensor_id;sensor_type;location;lat;lon;timestamp;pressure;altitude;pressure_sealevel;temperature;humidity
54022;BME280;39936;51.058;17.220;2023-01-26T00:02:44;102513.32;;;0.88;100.00
54022;BME280;39936;51.058;17.220;2023-01-26T00:05:54;102509.53;;;0.87;100.00
54022;BME280;39936;51.058;17.220;2023-01-26T00:09:38;102492.54;;;0.81;100.00
54022;BME280;39936;51.058;17.220;2023-01-26T00:12:48;102504.75;;;0.88;100.00
54022;BME280;39936;51.058;17.220;2023-01-26T00:15:59;102504.93;;;0.82;100.00
54022;BME280;39936;51.058;17.220;2023-01-26T00:19:35;102494.48;;;0.77;100.00
54022;BME280;39936;51.058;17.220;2023-01-26T00:22:49;102503.56;;;0.90;100.00
54022;BME280;39936;51.058;17.220;2023-01-26T00:26:21;102474.26;;;0.78;100.00
54022;BME280;39936;51.058;17.220;2023-01-26T00:29:27;102500.96;;;0.96;100.00
54022;BME280;39936;51.058;17.220;2023-01-26T00:32:42;102500.59;;;0.96;100.00
54022;BME280;39936;51.058;17.220;2023-01-26T00:35:54;102496.14;;;0.96;100.00
54022;BME280;39936;51.058;17.220;2023-01-26T00:39:51;102487.98;;;0.96;100.00
54022;BME280;39936;51.058;17.220;2023-01-26T00:42:55;102488.45;;;0.92;100.00
54022;BME280;39936;51.058;17.220;2023-01-26T00:46:10;102495.07;;;0.81;100.00
54022;BME280;39936;51.058;17.220;2023-01-26T00:49:31;102498.28;;;0.66;100.00
54022;BME280;39936;51.058;17.220;2023-01-26T00:53:05;102492.51;;;0.64;100.00
54022;BME280;39936;51.058;17.220;2023-01-26T00:57:07;102495.25;;;0.78;100.00
54022;BME280;39936;51.058;17.220;2023-01-26T01:00:13;102494.30;;;0.78;100.00
54022;BME280;39936;51.058;17.220;2023-01-26T01:03:56;102497.20;;;0.72;100.00
54022;BME280;39936;51.058;17.220;2023-01-26T01:07:08;102496.33;;;0.65;100.00
54022;BME280;39936;51.058;17.220;2023-01-26T01:10:22;102495.83;;;0.68;100.00
54022;BME280;39936;51.058;17.220;2023-01-26T01:13:33;102494.12;;;0.65;100.00
54022;BME280;39936;51.058;17.220;2023-01-26T01:16:44;102489.30;;;0.69;100.00
54022;BME280;39936;51.058;17.220;2023-01-26T01:20:00;102485.84;;;0.75;100.00
54022;BME280;39936;51.058;17.220;2023-01-26T01:23:11;102485.78;;;0.81;100.00
54022;BME280;39936;51.058;17.220;2023-01-26T01:26:35;102482.01;;;0.86;100.00
54022;BME280;39936;51.058;17.220;2023-01-26T01:29:49;102479.66;;;0.93;100.00
54022;BME280;39936;51.058;17.220;2023-01-26T01:32:58;102482.85;;;0.97;100.00
54022;BME280;39936;51.058;17.220;2023-01-26T01:36:38;102485.11;;;1.02;100.00
54022;BME280;39936;51.058;17.220;2023-01-26T01:40:15;102478.54;;;1.08;100.00
54022;BME280;39936;51.058;17.220;2023-01-26T01:47:32;102464.88;;;1.09;100.00
54022;BME280;39936;51.058;17.220;2023-01-26T01:51:26;102464.21;;;1.08;100.00
54022;BME280;39936;51.058;17.220;2023-01-26T01:54:33;102461.76;;;1.06;100.00
54022;BME280;39936;51.058;17.220;2023-01-26T01:57:49;102453.66;;;1.07;100.00
54022;BME280;39936;51.058;17.220;2023-01-26T02:00:59;102448.30;;;1.09;100.00
54022;BME280;39936;51.058;17.220;2023-01-26T02:04:14;102445.02;;;1.09;100.00
54022;BME280;39936;51.058;17.220;2023-01-26T02:07:28;102442.47;;;1.09;100.00
54022;BME280;39936;51.058;17.220;2023-01-26T02:10:34;102439.41;;;0.96;100.00
54022;BME280;39936;51.058;17.220;2023-01-26T02:13:51;102434.13;;;0.91;100.00
54022;BME280;39936;51.058;17.220;2023-01-26T02:17:00;102430.29;;;0.96;100.00
54022;BME280;39936;51.058;17.220;2023-01-26T02:20:20;102426.44;;;0.94;100.00
54022;BME280;39936;51.058;17.220;2023-01-26T02:26:55;102421.95;;;0.82;100.00
54022;BME280;39936;51.058;17.220;2023-01-26T02:30:32;102417.79;;;0.67;100.00
54022;BME280;39936;51.058;17.220;2023-01-26T02:33:56;102409.63;;;0.65;100.00
54022;BME280;39936;51.058;17.220;2023-01-26T02:37:03;102404.26;;;0.72;100.00
54022;BME280;39936;51.058;17.220;2023-01-26T02:44:08;102397.58;;;0.85;100.00
54022;BME280;39936;51.058;17.220;2023-01-26T02:47:19;102391.80;;;0.87;100.00
54022;BME280;39936;51.058;17.220;2023-01-26T02:50:24;102386.02;;;0.92;100.00
54022;BME280;39936;51.058;17.220;2023-01-26T02:54:04;102380.48;;;0.90;100.00
54022;BME280;39936;51.058;17.220;2023-01-26T02:57:16;102378.53;;;0.86;100.00
54022;BME280;39936;51.058;17.220;2023-01-26T03:00:30;102376.17;;;0.74;100.00
54022;BME280;39936;51.058;17.220;2023-01-26T03:03:46;102378.67;;;0.81;100.00
54022;BME280;39936;51.058;17.220;2023-01-26T03:07:25;102373.22;;;0.69;100.00
54022;BME280;39936;51.058;17.220;2023-01-26T03:10:46;102368.80;;;0.74;100.00
54022;BME280;39936;51.058;17.220;2023-01-26T03:14:22;102365.41;;;0.78;100.00
54022;BME280;39936;51.058;17.220;2023-01-26T03:17:34;102350.15;;;0.76;100.00
54022;BME280;39936;51.058;17.220;2023-01-26T03:21:16;102358.13;;;0.93;100.00
54022;BME280;39936;51.058;17.220;2023-01-26T03:24:37;102354.80;;;1.07;100.00
54022;BME280;39936;51.058;17.220;2023-01-26T03:27:53;102352.35;;;1.16;100.00
54022;BME280;39936;51.058;17.220;2023-01-26T03:31:05;102346.41;;;0.99;100.00
54022;BME280;39936;51.058;17.220;2023-01-26T03:34:54;102313.02;;;0.77;100.00
54022;BME280;39936;51.058;17.220;2023-01-26T03:38:36;102342.48;;;0.83;100.00
54022;BME280;39936;51.058;17.220;2023-01-26T03:41:45;102338.12;;;0.81;100.00
54022;BME280;39936;51.058;17.220;2023-01-26T03:45:31;102333.98;;;0.79;100.00
54022;BME280;39936;51.058;17.220;2023-01-26T03:48:52;102332.13;;;0.68;100.00
54022;BME280;39936;51.058;17.220;2023-01-26T03:52:10;102332.75;;;0.76;100.00
54022;BME280;39936;51.058;17.220;2023-01-26T03:56:08;102330.68;;;0.85;100.00
54022;BME280;39936;51.058;17.220;2023-01-26T03:59:31;102332.41;;;0.91;100.00
54022;BME280;39936;51.058;17.220;2023-01-26T04:02:57;102331.38;;;0.95;100.00
54022;BME280;39936;51.058;17.220;2023-01-26T04:06:23;102331.99;;;0.97;100.00
54022;BME280;39936;51.058;17.220;2023-01-26T04:09:48;102331.58;;;0.98;100.00
54022;BME280;39936;51.058;17.220;2023-01-26T04:12:59;102330.60;;;0.97;100.00
54022;BME280;39936;51.058;17.220;2023-01-26T04:16:25;102326.96;;;0.94;100.00
54022;BME280;39936;51.058;17.220;2023-01-26T04:20:20;102328.92;;;0.82;100.00
54022;BME280;39936;51.058;17.220;2023-01-26T04:23:54;102327.27;;;0.79;100.00
54022;BME280;39936;51.058;17.220;2023-01-26T04:27:23;102321.48;;;0.80;100.00
54022;BME280;39936;51.058;17.220;2023-01-26T04:30:37;102317.27;;;0.80;100.00
54022;BME280;39936;51.058;17.220;2023-01-26T04:33:46;102316.70;;;0.68;100.00
54022;BME280;39936;51.058;17.220;2023-01-26T04:36:58;102312.81;;;0.63;100.00
54022;BME280;39936;51.058;17.220;2023-01-26T04:40:03;102306.05;;;0.64;100.00
54022;BME280;39936;51.058;17.220;2023-01-26T04:43:16;102303.55;;;0.63;100.00
54022;BME280;39936;51.058;17.220;2023-01-26T04:46:28;102298.43;;;0.61;100.00
54022;BME280;39936;51.058;17.220;2023-01-26T04:50:06;102294.68;;;0.62;100.00
54022;BME280;39936;51.058;17.220;2023-01-26T04:53:12;102287.25;;;0.58;100.00
54022;BME280;39936;51.058;17.220;2023-01-26T04:56:45;102282.28;;;0.55;100.00
54022;BME280;39936;51.058;17.220;2023-01-26T05:00:26;102289.30;;;0.54;100.00
54022;BME280;39936;51.058;17.220;2023-01-26T05:03:37;102289.06;;;0.60;100.00
54022;BME280;39936;51.058;17.220;2023-01-26T05:06:45;102292.50;;;0.67;100.00
54022;BME280;39936;51.058;17.220;2023-01-26T05:09:52;102287.46;;;0.56;100.00
54022;BME280;39936;51.058;17.220;2023-01-26T05:13:13;102289.94;;;0.51;100.00
54022;BME280;39936;51.058;17.220;2023-01-26T05:16:18;102287.23;;;0.45;100.00
54022;BME280;39936;51.058;17.220;2023-01-26T05:19:59;102286.51;;;0.43;100.00
54022;BME280;39936;51.058;17.220;2023-01-26T05:23:16;102290.66;;;0.37;100.00
54022;BME280;39936;51.058;17.220;2023-01-26T05:26:54;102285.44;;;0.45;100.00
54022;BME280;39936;51.058;17.220;2023-01-26T05:30:10;102285.80;;;0.55;100.00
54022;BME280;39936;51.058;17.220;2023-01-26T05:33:28;102283.63;;;0.48;100.00
54022;BME280;39936;51.058;17.220;2023-01-26T05:36:42;102279.63;;;0.53;100.00
54022;BME280;39936;51.058;17.220;2023-01-26T05:40:10;102280.26;;;0.56;100.00
54022;BME280;39936;51.058;17.220;2023-01-26T05:43:15;102285.72;;;0.58;100.00
54022;BME280;39936;51.058;17.220;2023-01-26T05:46:30;102285.93;;;0.58;100.00
54022;BME280;39936;51.058;17.220;2023-01-26T05:49:47;102285.98;;;0.58;100.00
54022;BME280;39936;51.058;17.220;2023-01-26T05:53:39;102284.43;;;0.55;100.00
54022;BME280;39936;51.058;17.220;2023-01-26T05:56:46;102281.44;;;0.51;100.00
54022;BME280;39936;51.058;17.220;2023-01-26T06:00:04;102280.72;;;0.50;100.00
54022;BME280;39936;51.058;17.220;2023-01-26T06:03:11;102277.64;;;0.45;100.00
54022;BME280;39936;51.058;17.220;2023-01-26T06:06:19;102278.24;;;0.45;100.00
54022;BME280;39936;51.058;17.220;2023-01-26T06:09:49;102274.75;;;0.45;100.00
54022;BME280;39936;51.058;17.220;2023-01-26T06:13:02;102269.27;;;0.46;100.00
54022;BME280;39936;51.058;17.220;2023-01-26T06:16:17;102268.02;;;0.45;100.00
54022;BME280;39936;51.058;17.220;2023-01-26T06:19:26;102264.70;;;0.44;100.00
54022;BME280;39936;51.058;17.220;2023-01-26T06:23:01;102271.08;;;0.44;100.00
54022;BME280;39936;51.058;17.220;2023-01-26T06:26:19;102267.62;;;0.45;100.00
54022;BME280;39936;51.058;17.220;2023-01-26T06:29:35;102266.83;;;0.45;100.00
54022;BME280;39936;51.058;17.220;2023-01-26T06:32:48;102264.28;;;0.42;100.00
54022;BME280;39936;51.058;17.220;2023-01-26T06:36:29;102267.88;;;0.40;100.00
54022;BME280;39936;51.058;17.220;2023-01-26T06:39:36;102269.30;;;0.38;100.00
54022;BME280;39936;51.058;17.220;2023-01-26T06:42:53;102268.60;;;0.27;100.00
54022;BME280;39936;51.058;17.220;2023-01-26T06:46:10;102273.26;;;0.22;100.00
54022;BME280;39936;51.058;17.220;2023-01-26T06:49:52;102270.09;;;0.11;100.00
54022;BME280;39936;51.058;17.220;2023-01-26T06:56:40;102265.55;;;0.24;100.00
54022;BME280;39936;51.058;17.220;2023-01-26T07:00:21;102269.53;;;0.32;100.00
54022;BME280;39936;51.058;17.220;2023-01-26T07:03:31;102272.89;;;0.41;100.00
54022;BME280;39936;51.058;17.220;2023-01-26T07:06:46;102271.72;;;0.47;100.00
54022;BME280;39936;51.058;17.220;2023-01-26T07:09:58;102276.17;;;0.53;100.00
54022;BME280;39936;51.058;17.220;2023-01-26T07:13:44;102276.87;;;0.56;100.00
54022;BME280;39936;51.058;17.220;2023-01-26T07:16:53;102271.03;;;0.59;100.00
54022;BME280;39936;51.058;17.220;2023-01-26T07:19:59;102274.11;;;0.65;100.00
54022;BME280;39936;51.058;17.220;2023-01-26T07:23:10;102239.55;;;0.39;100.00
54022;BME280;39936;51.058;17.220;2023-01-26T07:26:53;102271.84;;;0.61;100.00
54022;BME280;39936;51.058;17.220;2023-01-26T07:30:31;102271.60;;;0.53;100.00
54022;BME280;39936;51.058;17.220;2023-01-26T07:33:39;102269.86;;;0.59;100.00
54022;BME280;39936;51.058;17.220;2023-01-26T07:36:52;102270.17;;;0.62;100.00
54022;BME280;39936;51.058;17.220;2023-01-26T07:39:59;102230.60;;;0.40;100.00
54022;BME280;39936;51.058;17.220;2023-01-26T07:43:12;102263.84;;;0.69;100.00
54022;BME280;39936;51.058;17.220;2023-01-26T07:46:21;102260.19;;;0.72;100.00
54022;BME280;39936;51.058;17.220;2023-01-26T07:49:33;102256.35;;;0.73;100.00
54022;BME280;39936;51.058;17.220;2023-01-26T07:53:28;102255.68;;;0.77;100.00
54022;BME280;39936;51.058;17.220;2023-01-26T07:56:38;102258.29;;;0.75;100.00
54022;BME280;39936;51.058;17.220;2023-01-26T08:00:21;102261.34;;;0.75;100.00
54022;BME280;39936;51.058;17.220;2023-01-26T08:03:34;102258.27;;;0.79;100.00
54022;BME280;39936;51.058;17.220;2023-01-26T08:07:12;102256.98;;;0.85;100.00
54022;BME280;39936;51.058;17.220;2023-01-26T08:10:18;102226.24;;;0.65;100.00
54022;BME280;39936;51.058;17.220;2023-01-26T08:13:31;102240.48;;;0.84;100.00
54022;BME280;39936;51.058;17.220;2023-01-26T08:16:42;102247.98;;;0.96;100.00
54022;BME280;39936;51.058;17.220;2023-01-26T08:19:53;102252.59;;;0.97;100.00
54022;BME280;39936;51.058;17.220;2023-01-26T08:23:02;102251.30;;;0.95;100.00
54022;BME280;39936;51.058;17.220;2023-01-26T08:26:12;102252.69;;;0.98;100.00
54022;BME280;39936;51.058;17.220;2023-01-26T08:29:20;102255.51;;;0.95;100.00
54022;BME280;39936;51.058;17.220;2023-01-26T08:32:59;102239.52;;;0.93;100.00
54022;BME280;39936;51.058;17.220;2023-01-26T08:36:09;102258.46;;;0.93;99.02
54022;BME280;39936;51.058;17.220;2023-01-26T08:39:29;102258.29;;;0.69;97.55
54022;BME280;39936;51.058;17.220;2023-01-26T08:43:30;102253.20;;;0.38;97.47
54022;BME280;39936;51.058;17.220;2023-01-26T08:46:45;102253.28;;;0.29;98.36
54022;BME280;39936;51.058;17.220;2023-01-26T08:50:23;102261.67;;;0.27;99.04
54022;BME280;39936;51.058;17.220;2023-01-26T08:53:34;102257.16;;;0.22;99.97
54022;BME280;39936;51.058;17.220;2023-01-26T08:56:53;102264.16;;;0.14;100.00
54022;BME280;39936;51.058;17.220;2023-01-26T09:00:36;102273.07;;;0.21;100.00
54022;BME280;39936;51.058;17.220;2023-01-26T09:03:47;102273.75;;;0.08;100.00
54022;BME280;39936;51.058;17.220;2023-01-26T09:07:00;102283.25;;;0.10;100.00
54022;BME280;39936;51.058;17.220;2023-01-26T09:10:35;102239.42;;;-0.18;100.00
54022;BME280;39936;51.058;17.220;2023-01-26T09:14:28;102278.76;;;0.21;100.00
54022;BME280;39936;51.058;17.220;2023-01-26T09:17:37;102251.19;;;-0.07;100.00
54022;BME280;39936;51.058;17.220;2023-01-26T09:20:51;102236.99;;;-0.09;100.00
54022;BME280;39936;51.058;17.220;2023-01-26T09:24:40;102274.96;;;0.17;100.00
54022;BME280;39936;51.058;17.220;2023-01-26T09:28:15;102271.47;;;0.40;100.00
54022;BME280;39936;51.058;17.220;2023-01-26T09:32:00;102269.41;;;0.32;100.00
54022;BME280;39936;51.058;17.220;2023-01-26T09:35:06;102263.16;;;0.43;100.00
54022;BME280;39936;51.058;17.220;2023-01-26T09:39:02;102258.99;;;0.68;100.00
54022;BME280;39936;51.058;17.220;2023-01-26T09:53:01;102250.17;;;0.41;100.00
54022;BME280;39936;51.058;17.220;2023-01-26T09:56:42;102247.36;;;0.39;99.99
54022;BME280;39936;51.058;17.220;2023-01-26T10:00:21;102245.05;;;0.30;99.65
54022;BME280;39936;51.058;17.220;2023-01-26T10:04:12;102245.44;;;0.20;99.97
54022;BME280;39936;51.058;17.220;2023-01-26T10:07:22;102207.27;;;-0.12;99.99
54022;BME280;39936;51.058;17.220;2023-01-26T10:10:43;102242.89;;;0.13;100.00
54022;BME280;39936;51.058;17.220;2023-01-26T10:13:59;102229.54;;;0.22;100.00
54022;BME280;39936;51.058;17.220;2023-01-26T10:20:38;102225.86;;;0.16;99.55
54022;BME280;39936;51.058;17.220;2023-01-26T10:24:01;102193.42;;;-0.06;99.87
54022;BME280;39936;51.058;17.220;2023-01-26T10:27:12;102229.13;;;0.15;99.05
54022;BME280;39936;51.058;17.220;2023-01-26T10:31:32;102221.35;;;0.27;99.81
54022;BME280;39936;51.058;17.220;2023-01-26T10:35:17;102215.29;;;0.30;98.16
54022;BME280;39936;51.058;17.220;2023-01-26T10:39:03;102220.29;;;0.16;95.79
54022;BME280;39936;51.058;17.220;2023-01-26T10:42:18;102185.03;;;-0.07;95.80
54022;BME280;39936;51.058;17.220;2023-01-26T10:45:56;102223.41;;;0.28;95.88
54022;BME280;39936;51.058;17.220;2023-01-26T10:49:35;102230.84;;;0.37;95.00
54022;BME280;39936;51.058;17.220;2023-01-26T10:59:52;102221.41;;;0.19;96.21
54022;BME280;39936;51.058;17.220;2023-01-26T11:03:18;102225.65;;;0.31;96.62
54022;BME280;39936;51.058;17.220;2023-01-26T11:06:33;102215.73;;;0.40;96.70
54022;BME280;39936;51.058;17.220;2023-01-26T11:14:17;102214.39;;;0.53;96.48
54022;BME280;39936;51.058;17.220;2023-01-26T11:22:04;102204.02;;;0.43;96.98
54022;BME280;39936;51.058;17.220;2023-01-26T12:00:02;102170.11;;;0.26;96.71
54022;BME280;39936;51.058;17.220;2023-01-26T12:03:49;102169.88;;;-0.00;96.51
54022;BME280;39936;51.058;17.220;2023-01-26T12:07:16;102162.49;;;-0.10;97.26
54022;BME280;39936;51.058;17.220;2023-01-26T12:11:12;102154.20;;;-0.13;98.40
54022;BME280;39936;51.058;17.220;2023-01-26T12:21:49;102106.55;;;-0.18;98.84
54022;BME280;39936;51.058;17.220;2023-01-26T12:28:36;102147.12;;;0.31;98.31
54022;BME280;39936;51.058;17.220;2023-01-26T12:32:18;102100.80;;;-0.01;97.63
54022;BME280;39936;51.058;17.220;2023-01-26T12:45:41;102132.16;;;0.38;97.63
54022;BME280;39936;51.058;17.220;2023-01-26T12:56:16;102133.59;;;0.52;96.57
54022;BME280;39936;51.058;17.220;2023-01-26T13:02:37;102128.09;;;0.44;96.13
54022;BME280;39936;51.058;17.220;2023-01-26T13:06:02;102123.98;;;0.42;96.05
54022;BME280;39936;51.058;17.220;2023-01-26T13:09:28;102123.64;;;0.29;96.04
54022;BME280;39936;51.058;17.220;2023-01-26T13:16:32;102117.45;;;0.16;96.48
54022;BME280;39936;51.058;17.220;2023-01-26T13:19:51;102079.59;;;-0.12;97.03
54022;BME280;39936;51.058;17.220;2023-01-26T13:30:46;102087.24;;;-0.32;97.80
54022;BME280;39936;51.058;17.220;2023-01-26T13:33:55;102123.16;;;-0.05;98.07
54022;BME280;39936;51.058;17.220;2023-01-26T13:37:16;102122.73;;;0.02;98.19
54022;BME280;39936;51.058;17.220;2023-01-26T13:40:33;102125.62;;;-0.14;97.51
54022;BME280;39936;51.058;17.220;2023-01-26T13:47:29;102132.58;;;-0.28;99.08
54022;BME280;39936;51.058;17.220;2023-01-26T14:03:26;102113.36;;;-0.24;100.00
54022;BME280;39936;51.058;17.220;2023-01-26T14:10:55;102102.91;;;-0.45;100.00
54022;BME280;39936;51.058;17.220;2023-01-26T14:18:00;102112.28;;;-0.48;100.00
54022;BME280;39936;51.058;17.220;2023-01-26T14:21:16;102107.63;;;-0.37;100.00
54022;BME280;39936;51.058;17.220;2023-01-26T14:24:39;102096.41;;;-0.45;100.00
54022;BME280;39936;51.058;17.220;2023-01-26T14:27:58;102102.04;;;-0.35;100.00
54022;BME280;39936;51.058;17.220;2023-01-26T14:31:23;102105.07;;;-0.40;100.00
54022;BME280;39936;51.058;17.220;2023-01-26T14:38:20;102109.28;;;-0.30;100.00
54022;BME280;39936;51.058;17.220;2023-01-26T14:41:28;102104.90;;;-0.32;100.00
54022;BME280;39936;51.058;17.220;2023-01-26T14:45:16;102111.98;;;-0.23;100.00
54022;BME280;39936;51.058;17.220;2023-01-26T14:48:28;102099.48;;;-0.31;100.00
54022;BME280;39936;51.058;17.220;2023-01-26T14:52:27;102092.41;;;-0.26;100.00
54022;BME280;39936;51.058;17.220;2023-01-26T14:56:21;102102.15;;;-0.20;100.00
54022;BME280;39936;51.058;17.220;2023-01-26T15:00:02;102101.05;;;-0.31;100.00
54022;BME280;39936;51.058;17.220;2023-01-26T15:06:44;102097.45;;;-0.32;100.00
54022;BME280;39936;51.058;17.220;2023-01-26T15:09:54;102091.29;;;-0.34;100.00
54022;BME280;39936;51.058;17.220;2023-01-26T15:13:55;102097.51;;;-0.28;100.00
54022;BME280;39936;51.058;17.220;2023-01-26T15:17:05;102098.70;;;-0.31;100.00
54022;BME280;39936;51.058;17.220;2023-01-26T15:23:48;102093.91;;;-0.20;100.00
54022;BME280;39936;51.058;17.220;2023-01-26T15:27:34;102101.16;;;-0.08;100.00
54022;BME280;39936;51.058;17.220;2023-01-26T15:30:53;102106.45;;;-0.11;100.00
54022;BME280;39936;51.058;17.220;2023-01-26T15:34:37;102066.70;;;-0.43;100.00
54022;BME280;39936;51.058;17.220;2023-01-26T15:38:16;102106.54;;;-0.13;100.00
54022;BME280;39936;51.058;17.220;2023-01-26T15:41:23;102105.72;;;-0.10;100.00
54022;BME280;39936;51.058;17.220;2023-01-26T15:44:38;102101.77;;;-0.16;100.00
54022;BME280;39936;51.058;17.220;2023-01-26T15:48:01;102104.34;;;-0.23;100.00
54022;BME280;39936;51.058;17.220;2023-01-26T15:51:15;102105.49;;;-0.22;100.00
54022;BME280;39936;51.058;17.220;2023-01-26T15:54:25;102103.18;;;-0.19;100.00
54022;BME280;39936;51.058;17.220;2023-01-26T15:57:31;102088.56;;;-0.31;100.00
54022;BME280;39936;51.058;17.220;2023-01-26T16:01:16;102096.55;;;-0.32;100.00
54022;BME280;39936;51.058;17.220;2023-01-26T16:04:57;102104.45;;;-0.27;100.00
54022;BME280;39936;51.058;17.220;2023-01-26T16:08:13;102100.64;;;-0.16;100.00
54022;BME280;39936;51.058;17.220;2023-01-26T16:11:32;102098.03;;;-0.17;100.00
54022;BME280;39936;51.058;17.220;2023-01-26T16:19:05;102102.23;;;0.02;100.00
54022;BME280;39936;51.058;17.220;2023-01-26T16:22:12;102060.97;;;-0.23;100.00
54022;BME280;39936;51.058;17.220;2023-01-26T16:25:35;102074.57;;;-0.35;100.00
54022;BME280;39936;51.058;17.220;2023-01-26T16:28:41;102106.84;;;-0.26;100.00
54022;BME280;39936;51.058;17.220;2023-01-26T16:31:51;102105.40;;;-0.24;100.00
54022;BME280;39936;51.058;17.220;2023-01-26T16:35:20;102097.41;;;-0.20;100.00
54022;BME280;39936;51.058;17.220;2023-01-26T16:38:32;102066.94;;;-0.43;100.00
54022;BME280;39936;51.058;17.220;2023-01-26T16:41:47;102081.88;;;-0.38;100.00
54022;BME280;39936;51.058;17.220;2023-01-26T16:44:56;102106.89;;;-0.11;100.00
54022;BME280;39936;51.058;17.220;2023-01-26T16:48:04;102106.15;;;-0.03;100.00
54022;BME280;39936;51.058;17.220;2023-01-26T16:51:29;102100.64;;;0.06;100.00
54022;BME280;39936;51.058;17.220;2023-01-26T16:54:40;102104.69;;;0.14;100.00
54022;BME280;39936;51.058;17.220;2023-01-26T16:58:27;102106.41;;;0.23;100.00
54022;BME280;39936;51.058;17.220;2023-01-26T17:01:44;102105.97;;;0.28;100.00
54022;BME280;39936;51.058;17.220;2023-01-26T17:04:50;102107.95;;;0.20;100.00
54022;BME280;39936;51.058;17.220;2023-01-26T17:08:32;102089.02;;;-0.01;100.00
54022;BME280;39936;51.058;17.220;2023-01-26T17:12:28;102117.27;;;0.01;100.00
54022;BME280;39936;51.058;17.220;2023-01-26T17:16:24;102116.77;;;-0.06;100.00
54022;BME280;39936;51.058;17.220;2023-01-26T17:19:36;102115.38;;;0.06;100.00
54022;BME280;39936;51.058;17.220;2023-01-26T17:23:16;102115.95;;;0.13;100.00
54022;BME280;39936;51.058;17.220;2023-01-26T17:27:07;102090.79;;;0.02;100.00
54022;BME280;39936;51.058;17.220;2023-01-26T17:30:28;102116.91;;;0.30;100.00
54022;BME280;39936;51.058;17.220;2023-01-26T17:33:37;102117.56;;;0.31;100.00
54022;BME280;39936;51.058;17.220;2023-01-26T17:36:46;102111.74;;;0.37;100.00
54022;BME280;39936;51.058;17.220;2023-01-26T17:40:00;102089.84;;;0.27;100.00
54022;BME280;39936;51.058;17.220;2023-01-26T17:43:15;102111.28;;;0.42;100.00
54022;BME280;39936;51.058;17.220;2023-01-26T17:46:36;102090.04;;;0.29;100.00
54022;BME280;39936;51.058;17.220;2023-01-26T17:50:29;102111.75;;;0.47;100.00
54022;BME280;39936;51.058;17.220;2023-01-26T17:53:45;102107.41;;;0.43;100.00
54022;BME280;39936;51.058;17.220;2023-01-26T17:57:01;102101.84;;;0.44;100.00
54022;BME280;39936;51.058;17.220;2023-01-26T18:00:19;102096.67;;;0.39;100.00
54022;BME280;39936;51.058;17.220;2023-01-26T18:04:13;102104.62;;;0.43;100.00
54022;BME280;39936;51.058;17.220;2023-01-26T18:12:06;102101.36;;;0.47;100.00
54022;BME280;39936;51.058;17.220;2023-01-26T18:15:29;102108.10;;;0.36;100.00
54022;BME280;39936;51.058;17.220;2023-01-26T18:24:08;102105.79;;;-0.03;100.00
54022;BME280;39936;51.058;17.220;2023-01-26T18:27:35;102110.94;;;0.06;100.00
54022;BME280;39936;51.058;17.220;2023-01-26T18:30:51;102111.69;;;-0.08;100.00
54022;BME280;39936;51.058;17.220;2023-01-26T18:34:33;102111.48;;;-0.07;100.00
54022;BME280;39936;51.058;17.220;2023-01-26T18:39:17;102107.75;;;0.11;100.00
54022;BME280;39936;51.058;17.220;2023-01-26T18:47:34;102111.00;;;0.51;100.00
54022;BME280;39936;51.058;17.220;2023-01-26T18:50:55;102072.49;;;0.30;100.00
54022;BME280;39936;51.058;17.220;2023-01-26T18:55:16;102116.86;;;0.54;100.00
54022;BME280;39936;51.058;17.220;2023-01-26T19:07:22;102131.05;;;0.32;100.00
54022;BME280;39936;51.058;17.220;2023-01-26T19:10:28;102138.47;;;0.24;100.00
54022;BME280;39936;51.058;17.220;2023-01-26T19:13:36;102140.65;;;0.13;100.00
54022;BME280;39936;51.058;17.220;2023-01-26T19:17:28;102140.43;;;0.13;100.00
54022;BME280;39936;51.058;17.220;2023-01-26T19:24:40;102137.28;;;0.16;100.00
54022;BME280;39936;51.058;17.220;2023-01-26T19:28:29;102130.17;;;0.10;100.00
54022;BME280;39936;51.058;17.220;2023-01-26T19:32:17;102111.48;;;-0.01;100.00
54022;BME280;39936;51.058;17.220;2023-01-26T19:36:06;102139.13;;;0.25;100.00
54022;BME280;39936;51.058;17.220;2023-01-26T19:40:55;102083.09;;;-0.04;100.00
54022;BME280;39936;51.058;17.220;2023-01-26T19:44:04;102138.30;;;0.41;100.00
54022;BME280;39936;51.058;17.220;2023-01-26T19:47:21;102135.07;;;0.44;100.00
54022;BME280;39936;51.058;17.220;2023-01-26T19:51:16;102093.70;;;0.16;100.00
54022;BME280;39936;51.058;17.220;2023-01-26T19:54:29;102131.05;;;0.40;100.00
54022;BME280;39936;51.058;17.220;2023-01-26T19:57:35;102131.18;;;0.30;100.00
54022;BME280;39936;51.058;17.220;2023-01-26T20:00:41;102129.47;;;0.25;100.00
54022;BME280;39936;51.058;17.220;2023-01-26T20:03:54;102091.14;;;-0.05;100.00
54022;BME280;39936;51.058;17.220;2023-01-26T20:07:13;102133.07;;;0.21;100.00
54022;BME280;39936;51.058;17.220;2023-01-26T20:11:07;102121.65;;;0.15;100.00
54022;BME280;39936;51.058;17.220;2023-01-26T20:14:13;102132.24;;;0.19;100.00
54022;BME280;39936;51.058;17.220;2023-01-26T20:17:38;102130.53;;;0.15;100.00
54022;BME280;39936;51.058;17.220;2023-01-26T20:20:51;102125.05;;;0.10;100.00
54022;BME280;39936;51.058;17.220;2023-01-26T20:24:38;102125.22;;;0.03;100.00
54022;BME280;39936;51.058;17.220;2023-01-26T20:28:06;102123.21;;;-0.02;100.00
54022;BME280;39936;51.058;17.220;2023-01-26T20:39:13;102121.20;;;-0.08;100.00
54022;BME280;39936;51.058;17.220;2023-01-26T20:43:03;102113.64;;;-0.16;100.00
54022;BME280;39936;51.058;17.220;2023-01-26T20:46:14;102120.83;;;-0.12;100.00